Time;durP1;ratioP1;P1;durP2;ratioP2;P2;SDS_P1;SDS_P2;PMS_P1;PMS_P2;Temp;Humidity;BMP_temperature;BMP_pressure;BME280_temperature;BME280_humidity;BME280_pressure;Samples;Min_cycle;Max_cycle;Signal;HPM_P1;HPM_P2
2021/03/29 00:01:37;;;;;;;13.45;5.40;;;;;;;8.17;100.00;102449.69;4956174;28;20078;-62
2021/03/29 00:04:05;;;;;;;10.32;4.57;;;;;;;8.15;100.00;102448.94;4947196;28;20488;-63
2021/03/29 00:06:32;;;;;;;11.20;4.88;;;;;;;8.13;100.00;102454.38;4959993;28;20069;-65
2021/03/29 00:08:59;;;;;;;10.68;4.78;;;;;;;8.12;100.00;102452.63;4963257;28;20401;-63
2021/03/29 00:11:25;;;;;;;13.20;4.75;;;;;;;8.17;100.00;102449.69;4962157;28;20400;-66
2021/03/29 00:13:53;;;;;;;13.63;4.85;;;;;;;8.09;100.00;102447.44;4963501;28;20125;-63
2021/03/29 00:16:22;;;;;;;12.32;4.63;;;;;;;8.09;100.00;102425.13;4964679;28;20047;-63
2021/03/29 00:18:48;;;;;;;13.18;4.90;;;;;;;8.06;100.00;102443.09;4964531;28;20058;-65
2021/03/29 00:21:15;;;;;;;12.50;4.75;;;;;;;8.03;100.00;102437.91;4961124;28;20448;-63
2021/03/29 00:23:42;;;;;;;12.27;5.28;;;;;;;7.93;100.00;102431.28;4964997;28;20055;-62
2021/03/29 00:26:09;;;;;;;10.52;5.50;;;;;;;7.86;100.00;102425.38;4964132;28;20051;-63
2021/03/29 00:28:35;;;;;;;15.25;5.65;;;;;;;7.78;100.00;102429.41;4963621;28;20054;-63
2021/03/29 00:31:04;;;;;;;9.23;5.75;;;;;;;7.80;100.00;102430.19;4962861;28;20051;-62
2021/03/29 00:33:31;;;;;;;13.88;7.07;;;;;;;7.79;100.00;102425.75;4964545;28;20488;-63
2021/03/29 00:35:58;;;;;;;14.00;6.38;;;;;;;7.77;100.00;102431.19;4964483;28;20066;-63
2021/03/29 00:38:26;;;;;;;13.68;6.85;;;;;;;7.82;100.00;102431.00;4962247;28;20404;-64
2021/03/29 00:40:57;;;;;;;14.75;7.15;;;;;;;7.85;100.00;102430.84;4962326;28;20051;-62
2021/03/29 00:43:25;;;;;;;18.13;7.45;;;;;;;7.90;100.00;102434.13;4963130;28;20101;-63
2021/03/29 00:45:54;;;;;;;13.00;7.00;;;;;;;7.86;100.00;102444.16;4963693;28;20043;-62
2021/03/29 00:48:21;;;;;;;18.30;7.17;;;;;;;7.87;100.00;102431.59;4960722;28;20051;-63
2021/03/29 00:53:14;;;;;;;19.63;7.90;;;;;;;7.81;100.00;102421.22;5003849;22;20444;-63
2021/03/29 00:55:43;;;;;;;14.40;7.57;;;;;;;7.78;100.00;102422.22;5061929;28;20643;-64
2021/03/29 00:58:11;;;;;;;13.07;7.22;;;;;;;7.70;100.00;102419.94;5060771;28;20057;-62
2021/03/29 01:00:40;;;;;;;14.98;7.15;;;;;;;7.81;100.00;102431.94;5060442;28;20052;-63
2021/03/29 01:03:09;;;;;;;;;;;;;;;7.78;100.00;102427.59;5059716;28;20072;-62
2021/03/29 01:05:35;;;;;;;14.98;6.82;;;;;;;7.71;100.00;102424.38;5048773;28;19924;-63
2021/03/29 01:08:02;;;;;;;15.63;7.05;;;;;;;7.77;100.00;102419.63;5060559;28;20048;-62
2021/03/29 01:10:28;;;;;;;13.38;7.07;;;;;;;7.71;100.00;102426.16;5061998;28;20091;-63
2021/03/29 01:13:04;;;;;;;14.70;6.82;;;;;;;7.70;100.00;102419.94;5053125;28;20065;-63
2021/03/29 01:15:31;;;;;;;15.82;7.07;;;;;;;7.77;100.00;102407.09;5060199;28;20101;-63
2021/03/29 01:17:58;;;;;;;16.60;7.70;;;;;;;7.80;100.00;102424.81;5051449;28;20054;-62
2021/03/29 01:20:35;;;;;;;19.17;7.35;;;;;;;7.76;100.00;102420.56;5059559;28;20052;-63
2021/03/29 01:23:03;;;;;;;15.25;7.15;;;;;;;7.80;100.00;102432.88;5061452;28;20053;-63
2021/03/29 01:25:36;;;;;;;14.82;7.63;;;;;;;7.80;100.00;102431.06;5060936;28;20048;-65
2021/03/29 01:28:07;;;;;;;16.30;8.27;;;;;;;7.78;100.00;102429.41;5059080;28;20052;-63
2021/03/29 01:33:46;;;;;;;15.25;8.65;;;;;;;7.77;100.00;102427.66;4975946;28;20050;-63
2021/03/29 01:36:12;;;;;;;14.32;7.68;;;;;;;7.70;100.00;102419.09;4980384;28;20571;-62
2021/03/29 01:38:39;;;;;;;21.27;8.95;;;;;;;7.70;100.00;102425.31;4980947;28;20053;-63
2021/03/29 01:41:06;;;;;;;17.35;9.23;;;;;;;7.66;100.00;102421.06;4968517;28;20062;-63
2021/03/29 01:43:33;;;;;;;15.43;8.55;;;;;;;7.67;100.00;102421.91;4977818;28;20064;-62
2021/03/29 01:46:00;;;;;;;20.67;9.45;;;;;;;7.62;100.00;102427.50;4977343;28;20485;-62
2021/03/29 01:48:27;;;;;;;20.73;9.90;;;;;;;7.53;100.00;102420.81;4980436;28;20066;-62
2021/03/29 01:50:54;;;;;;;16.05;9.25;;;;;;;7.59;100.00;102429.50;4981054;28;20054;-64
2021/03/29 01:53:23;;;;;;;16.70;8.90;;;;;;;7.64;100.00;102428.31;4982282;28;20069;-64
2021/03/29 01:55:50;;;;;;;20.23;9.25;;;;;;;7.59;100.00;102427.66;4975062;28;20158;-63
2021/03/29 01:58:18;;;;;;;19.65;10.57;;;;;;;7.51;100.00;102425.38;5001263;23;20400;-62
2021/03/29 02:00:49;;;;;;;18.55;9.77;;;;;;;7.47;100.00;102412.22;5037649;28;20050;-64
2021/03/29 02:03:15;;;;;;;16.52;9.93;;;;;;;7.44;100.00;102412.38;5038898;28;20103;-63
2021/03/29 02:05:42;;;;;;;18.50;9.48;;;;;;;7.44;100.00;102425.78;5040215;28;20061;-64
2021/03/29 02:08:09;;;;;;;18.10;10.65;;;;;;;7.47;100.00;102420.25;5041072;28;20057;-63
2021/03/29 02:10:38;;;;;;;13.48;9.38;;;;;;;7.50;100.00;102420.97;5039506;28;20048;-64
2021/03/29 02:13:06;;;;;;;18.17;10.77;;;;;;;7.44;100.00;102417.75;5039252;28;20544;-63
2021/03/29 02:15:33;;;;;;;19.85;10.25;;;;;;;7.47;100.00;102414.91;5039488;28;20053;-63
2021/03/29 02:18:01;;;;;;;18.02;9.57;;;;;;;7.48;100.00;102421.97;5040357;28;20051;-62
2021/03/29 02:20:31;;;;;;;17.77;10.70;;;;;;;7.47;100.00;102417.59;5058629;28;20041;-63
2021/03/29 02:22:59;;;;;;;22.58;9.20;;;;;;;7.49;100.00;102415.69;5057873;28;20478;-63
2021/03/29 02:25:29;;;;;;;18.73;9.32;;;;;;;7.45;100.00;102419.44;5059952;28;20048;-63
2021/03/29 02:27:55;;;;;;;;;;;;;;;7.47;100.00;102407.72;5058039;28;20049;-64
2021/03/29 02:30:24;;;;;;;17.45;9.05;;;;;;;7.52;100.00;102404.81;5057044;28;20369;-62
2021/03/29 02:32:51;;;;;;;19.20;9.07;;;;;;;7.51;100.00;102411.13;5055724;28;20061;-62
2021/03/29 02:35:21;;;;;;;16.38;8.98;;;;;;;7.57;100.00;102409.91;5058752;28;20056;-63
2021/03/29 02:37:47;;;;;;;;;;;;;;;7.53;100.00;102409.22;5058986;28;20532;-64
2021/03/29 02:40:14;;;;;;;13.55;8.27;;;;;;;7.57;100.00;102412.59;5058925;28;19924;-63
2021/03/29 02:42:41;;;;;;;15.93;8.70;;;;;;;7.54;100.00;102405.63;5059401;28;20056;-63
2021/03/29 02:45:09;;;;;;;17.58;9.20;;;;;;;7.54;100.00;102397.56;5059392;28;20052;-63
2021/03/29 02:47:37;;;;;;;16.98;9.00;;;;;;;7.61;100.00;102400.78;5060294;28;20040;-65
2021/03/29 02:50:07;;;;;;;14.77;8.60;;;;;;;7.63;100.00;102405.13;5057810;28;20056;-63
2021/03/29 02:52:34;;;;;;;16.40;9.48;;;;;;;7.66;100.00;102412.16;5057109;28;20048;-62
2021/03/29 02:55:01;;;;;;;15.80;8.73;;;;;;;7.61;100.00;102408.81;5059483;28;20048;-65
2021/03/29 02:57:29;;;;;;;17.38;8.52;;;;;;;7.63;100.00;102413.16;5057218;28;20051;-63
2021/03/29 02:59:56;;;;;;;18.83;8.40;;;;;;;7.72;100.00;102401.09;5046008;28;20063;-63
2021/03/29 03:02:23;;;;;;;16.42;9.13;;;;;;;7.81;100.00;102400.63;5037025;28;20056;-63
2021/03/29 03:04:50;;;;;;;18.40;9.07;;;;;;;7.78;100.00;102400.78;5039075;28;20543;-63
2021/03/29 03:07:17;;;;;;;17.30;8.82;;;;;;;7.74;100.00;102401.03;5038765;28;20056;-64
2021/03/29 03:09:45;;;;;;;18.15;8.75;;;;;;;7.72;100.00;102410.00;5038873;28;20052;-63
2021/03/29 03:12:11;;;;;;;20.77;9.20;;;;;;;7.73;100.00;102410.91;5037750;28;20060;-63
2021/03/29 03:14:39;;;;;;;14.77;8.20;;;;;;;7.72;100.00;102404.66;5039091;28;20046;-63
2021/03/29 03:17:05;;;;;;;19.80;8.70;;;;;;;7.70;100.00;102403.88;5038560;28;20053;-65
2021/03/29 03:19:31;;;;;;;11.88;7.57;;;;;;;7.81;100.00;102407.81;5040569;28;20049;-65
2021/03/29 03:21:57;;;;;;;21.33;8.90;;;;;;;7.79;100.00;102402.53;5038739;28;20143;-63
2021/03/29 03:24:32;;;;;;;15.35;7.90;;;;;;;7.76;100.00;102402.69;5039135;28;20190;-65
2021/03/29 03:27:05;;;;;;;15.52;7.53;;;;;;;7.78;100.00;102402.59;5037854;28;20079;-62
2021/03/29 03:29:33;;;;;;;16.25;8.85;;;;;;;7.84;100.00;102410.31;5035697;28;20095;-64
2021/03/29 03:31:59;;;;;;;16.42;7.43;;;;;;;7.84;100.00;102410.31;5035014;28;20056;-63
2021/03/29 03:34:25;;;;;;;12.93;7.80;;;;;;;7.89;100.00;102405.56;5036073;28;20157;-64
2021/03/29 03:36:51;;;;;;;15.95;7.60;;;;;;;7.88;100.00;102414.59;5038005;28;20096;-65
2021/03/29 03:39:18;;;;;;;14.85;7.97;;;;;;;7.82;100.00;102409.56;5038941;28;20642;-62
2021/03/29 03:41:44;;;;;;;14.90;7.60;;;;;;;7.92;100.00;102410.81;5038480;28;20115;-63
2021/03/29 03:44:11;;;;;;;17.85;6.80;;;;;;;7.91;100.00;102411.75;5042810;28;20660;-64
2021/03/29 03:46:39;;;;;;;13.60;7.10;;;;;;;7.86;100.00;102411.09;5041982;28;20095;-63
2021/03/29 03:49:08;;;;;;;13.07;6.38;;;;;;;7.96;100.00;102415.03;5041546;28;20076;-62
2021/03/29 03:51:35;;;;;;;14.95;7.55;;;;;;;7.97;100.00;102411.41;5042863;28;20056;-62
2021/03/29 03:54:01;;;;;;;19.40;7.93;;;;;;;7.97;100.00;102422.13;5043521;28;20115;-63
2021/03/29 03:56:31;;;;;;;13.45;6.93;;;;;;;7.96;100.00;102420.38;5041572;28;20033;-62
2021/03/29 03:58:57;;;;;;;15.95;7.45;;;;;;;8.01;100.00;102428.19;5041425;28;20492;-65
2021/03/29 04:04:10;;;;;;;15.43;6.57;;;;;;;7.96;100.00;102436.47;5065654;23;20106;-66
2021/03/29 04:06:36;;;;;;;9.20;6.00;;;;;;;8.05;100.00;102445.84;5062644;28;20056;-63
2021/03/29 04:11:54;;;;;;;18.83;6.60;;;;;;;8.01;100.00;102442.47;5075276;23;20052;-65
2021/03/29 04:14:20;;;;;;;13.82;6.47;;;;;;;8.02;100.00;102440.66;5059909;28;20052;-64
2021/03/29 04:16:46;;;;;;;15.27;6.72;;;;;;;8.04;100.00;102438.78;5062539;28;20060;-63
2021/03/29 04:19:13;;;;;;;14.57;5.78;;;;;;;7.97;100.00;102432.84;5061517;28;20205;-65
2021/03/29 04:21:39;;;;;;;11.27;6.13;;;;;;;8.06;100.00;102426.16;5058564;28;20467;-63
2021/03/29 04:24:06;;;;;;;13.35;5.88;;;;;;;8.05;100.00;102429.78;5061727;28;20426;-64
2021/03/29 04:26:32;;;;;;;13.40;6.07;;;;;;;8.00;100.00;102427.34;5062602;28;20048;-63
2021/03/29 04:28:58;;;;;;;10.60;5.47;;;;;;;8.01;100.00;102428.19;5061784;28;21285;-63
2021/03/29 04:31:24;;;;;;;12.82;5.70;;;;;;;8.01;100.00;102418.34;5060550;28;20041;-64
2021/03/29 04:33:50;;;;;;;13.35;6.22;;;;;;;8.02;100.00;102420.09;5062923;28;20064;-65
2021/03/29 04:36:16;;;;;;;14.63;5.72;;;;;;;7.94;100.00;102424.97;5060227;28;20048;-64
2021/03/29 04:38:42;;;;;;;17.30;6.10;;;;;;;7.96;100.00;102423.06;5062370;28;20048;-63
2021/03/29 04:41:08;;;;;;;10.10;5.47;;;;;;;7.94;100.00;102433.03;5060951;28;20114;-63
2021/03/29 04:43:34;;;;;;;13.43;5.78;;;;;;;7.96;100.00;102435.63;5061873;28;20552;-65
2021/03/29 04:46:00;;;;;;;19.23;5.70;;;;;;;7.93;100.00;102431.28;5061049;28;20144;-63
2021/03/29 04:48:26;;;;;;;14.02;6.30;;;;;;;7.92;100.00;102440.28;5061359;28;20123;-63
2021/03/29 04:50:52;;;;;;;14.10;5.25;;;;;;;7.96;100.00;102439.16;5060256;28;20048;-65
2021/03/29 04:53:19;;;;;;;14.02;5.38;;;;;;;7.93;100.00;102430.44;5060378;28;20056;-63
2021/03/29 04:55:45;;;;;;;12.15;5.88;;;;;;;8.00;100.00;102446.09;5060666;28;20056;-63
2021/03/29 04:58:10;;;;;;;14.10;5.80;;;;;;;7.96;100.00;102446.34;5061519;28;20057;-63
2021/03/29 05:00:36;;;;;;;17.95;5.78;;;;;;;7.86;100.00;102446.84;5059478;28;20132;-63
2021/03/29 05:03:02;;;;;;;15.55;6.15;;;;;;;7.83;100.00;102432.72;5061704;28;20136;-63
2021/03/29 05:05:28;;;;;;;16.58;5.88;;;;;;;7.82;100.00;102439.03;5060288;28;20469;-63
2021/03/29 05:07:54;;;;;;;14.93;5.57;;;;;;;7.85;100.00;102444.22;5061322;28;20057;-64
2021/03/29 05:10:21;;;;;;;18.67;6.05;;;;;;;7.81;100.00;102448.00;5060746;28;20075;-66
2021/03/29 05:12:47;;;;;;;12.90;5.82;;;;;;;7.76;100.00;102450.03;5061526;28;20127;-63
2021/03/29 05:15:14;;;;;;;17.83;5.50;;;;;;;7.70;100.00;102449.44;5061249;28;20091;-63
2021/03/29 05:17:40;;;;;;;10.88;5.30;;;;;;;7.72;100.00;102455.56;5061062;28;20486;-63
2021/03/29 05:20:09;;;;;;;14.02;6.25;;;;;;;7.66;100.00;102466.59;5060076;28;20123;-63
2021/03/29 05:22:35;;;;;;;18.33;6.28;;;;;;;7.66;100.00;102449.66;5061686;28;20460;-62
2021/03/29 05:25:01;;;;;;;13.15;5.28;;;;;;;7.67;100.00;102457.63;5061169;28;20080;-63
2021/03/29 05:27:28;;;;;;;13.05;5.70;;;;;;;7.64;100.00;102452.44;5061395;28;20053;-63
2021/03/29 05:29:53;;;;;;;14.48;6.30;;;;;;;7.68;100.00;102464.69;5062101;28;20044;-61
2021/03/29 05:32:21;;;;;;;12.70;5.70;;;;;;;7.67;100.00;102465.66;5059548;28;20453;-63
2021/03/29 05:34:49;;;;;;;15.93;5.88;;;;;;;7.68;100.00;102466.53;5060244;28;20056;-62
2021/03/29 05:37:17;;;;;;;10.20;5.32;;;;;;;7.68;100.00;102463.84;5058964;28;21697;-62
2021/03/29 05:39:45;;;;;;;15.05;5.68;;;;;;;7.64;100.00;102473.88;5060813;28;20059;-63
2021/03/29 05:42:11;;;;;;;13.55;5.70;;;;;;;7.68;100.00;102479.94;5056843;28;20095;-65
2021/03/29 05:44:38;;;;;;;9.77;5.30;;;;;;;7.62;100.00;102491.81;5054455;28;21170;-62
2021/03/29 05:47:05;;;;;;;17.30;5.15;;;;;;;7.65;100.00;102485.44;5060007;28;20049;-65
2021/03/29 05:49:31;;;;;;;12.95;5.70;;;;;;;7.60;100.00;102487.50;5060660;28;20505;-65
2021/03/29 05:51:57;;;;;;;12.73;6.03;;;;;;;7.65;100.00;102497.03;5061116;28;20059;-61
2021/03/29 05:54:23;;;;;;;13.63;5.50;;;;;;;7.66;100.00;102493.41;5059454;28;20490;-62
2021/03/29 05:56:50;;;;;;;12.70;5.75;;;;;;;7.63;100.00;102496.25;5058565;28;20428;-63
2021/03/29 05:59:19;;;;;;;14.07;5.38;;;;;;;7.65;100.00;102502.38;5060101;28;20067;-63
2021/03/29 06:01:47;;;;;;;12.40;5.00;;;;;;;7.67;100.00;102502.31;5060075;28;20088;-62
2021/03/29 06:04:14;;;;;;;10.13;5.00;;;;;;;7.62;100.00;102499.00;5059496;28;20066;-65
2021/03/29 06:06:41;;;;;;;11.93;5.53;;;;;;;7.61;100.00;102506.19;5057085;28;20497;-64
2021/03/29 06:09:08;;;;;;;16.50;6.53;;;;;;;7.65;100.00;102507.75;5060254;28;20061;-63
2021/03/29 06:11:36;;;;;;;9.30;5.13;;;;;;;7.71;100.00;102512.81;5060351;28;20053;-62
2021/03/29 06:14:07;;;;;;;7.97;4.82;;;;;;;7.76;100.00;102515.25;5059722;28;20057;-63
2021/03/29 06:16:52;;;;;;;15.77;5.53;;;;;;;7.82;100.00;102519.44;5061721;28;20405;-63
2021/03/29 06:19:37;;;;;;;13.90;5.55;;;;;;;7.86;100.00;102519.22;5059286;28;20057;-63
2021/03/29 06:22:07;;;;;;;12.02;4.75;;;;;;;7.93;100.00;102533.16;5059087;28;20056;-63
2021/03/29 06:24:55;;;;;;;10.93;4.97;;;;;;;7.89;100.00;102524.41;5061192;28;20056;-63
2021/03/29 06:27:23;;;;;;;12.50;4.75;;;;;;;7.91;100.00;102528.84;5058021;28;20082;-64
2021/03/29 06:29:49;;;;;;;16.58;4.88;;;;;;;8.00;100.00;102529.22;5059728;28;20139;-62
2021/03/29 06:32:18;;;;;;;11.25;5.30;;;;;;;8.11;100.00;102530.50;5060196;28;20049;-62
2021/03/29 06:34:44;;;;;;;13.07;5.72;;;;;;;8.17;100.00;102535.53;5059651;28;20052;-65
2021/03/29 06:37:10;;;;;;;13.98;5.22;;;;;;;8.26;100.00;102543.13;5058389;28;20040;-62
2021/03/29 06:39:37;;;;;;;12.68;5.20;;;;;;;8.28;100.00;102546.59;5060053;28;20060;-64
2021/03/29 06:42:05;;;;;;;9.88;4.47;;;;;;;8.29;100.00;102540.28;5059189;28;20056;-64
2021/03/29 06:44:33;;;;;;;13.02;5.32;;;;;;;8.36;100.00;102541.69;5057174;28;20048;-63
2021/03/29 06:47:07;;;;;;;11.77;4.78;;;;;;;8.47;100.00;102542.97;5057523;28;20052;-63
2021/03/29 06:49:42;;;;;;;13.60;4.80;;;;;;;8.51;100.00;102541.84;5057919;28;20036;-63
2021/03/29 06:52:25;;;;;;;13.40;4.60;;;;;;;8.54;100.00;102545.25;5056417;28;20053;-63
2021/03/29 06:54:52;;;;;;;10.85;5.40;;;;;;;8.64;100.00;102536.69;5057602;28;20084;-62
2021/03/29 06:57:31;;;;;;;15.70;4.88;;;;;;;8.67;100.00;102545.47;5059277;28;20064;-63
2021/03/29 06:59:57;;;;;;;11.18;4.88;;;;;;;8.71;100.00;102546.16;5060564;28;20048;-65
2021/03/29 07:02:37;;;;;;;10.73;5.38;;;;;;;8.75;100.00;102548.59;5061057;28;20049;-63
2021/03/29 07:05:05;;;;;;;14.90;5.43;;;;;;;8.84;100.00;102539.19;5058731;28;20118;-63
2021/03/29 07:07:31;;;;;;;13.68;4.82;;;;;;;8.87;100.00;102543.53;5059258;28;20048;-62
2021/03/29 07:09:58;;;;;;;16.05;5.28;;;;;;;8.87;100.00;102546.22;5058691;28;20037;-64
2021/03/29 07:12:27;;;;;;;13.80;4.78;;;;;;;9.07;100.00;102553.19;5060241;28;20508;-63
2021/03/29 07:14:55;;;;;;;10.90;5.30;;;;;;;9.10;100.00;102553.00;5058374;28;20074;-64
2021/03/29 07:17:25;;;;;;;15.05;4.78;;;;;;;9.17;100.00;102558.91;5060058;28;20056;-65
2021/03/29 07:19:53;;;;;;;15.52;5.40;;;;;;;9.21;100.00;102557.78;5059909;28;20485;-64
2021/03/29 07:22:21;;;;;;;11.40;5.07;;;;;;;9.25;100.00;102559.34;5058631;28;20045;-64
2021/03/29 07:24:47;;;;;;;8.95;4.78;;;;;;;9.27;100.00;102560.13;5058849;28;20521;-65
2021/03/29 07:27:15;;;;;;;13.55;4.70;;;;;;;9.34;100.00;102566.03;5059709;28;20049;-63
2021/03/29 07:29:47;;;;;;;14.25;4.72;;;;;;;9.46;100.00;102557.25;5059435;28;20106;-63
2021/03/29 07:32:27;;;;;;;12.68;4.53;;;;;;;9.46;100.00;102555.44;5058216;28;20410;-62
2021/03/29 07:34:53;;;;;;;10.93;4.30;;;;;;;9.54;100.00;102556.81;5059108;28;20055;-65
2021/03/29 07:37:29;;;;;;;13.85;5.07;;;;;;;9.67;100.00;102563.22;5058605;28;20053;-65
2021/03/29 07:39:55;;;;;;;9.55;4.47;;;;;;;9.78;100.00;102547.34;5058641;28;20131;-63
2021/03/29 07:42:49;;;;;;;11.73;5.00;;;;;;;9.77;100.00;102580.56;5058110;28;20447;-63
2021/03/29 07:45:17;;;;;;;11.68;4.25;;;;;;;9.80;100.00;102572.34;5022893;28;20060;-63
2021/03/29 07:47:50;;;;;;;12.10;4.72;;;;;;;9.89;100.00;102578.13;5059245;28;20049;-63
2021/03/29 07:50:50;;;;;;;11.55;4.43;;;;;;;10.01;100.00;102572.00;5058979;28;20114;-64
2021/03/29 07:53:19;;;;;;;12.27;5.18;;;;;;;10.06;100.00;102578.00;5060056;28;20051;-65
2021/03/29 07:55:47;;;;;;;17.33;4.70;;;;;;;10.17;100.00;102577.34;5059652;28;20093;-63
2021/03/29 07:58:15;;;;;;;11.43;3.97;;;;;;;10.22;100.00;102579.78;5057670;28;20053;-65
2021/03/29 08:00:43;;;;;;;13.82;4.78;;;;;;;10.36;100.00;102587.91;5058286;28;20075;-65
2021/03/29 08:03:53;;;;;;;14.80;4.43;;;;;;;10.45;100.00;102579.31;5050736;28;20053;-62
2021/03/29 08:06:45;;;;;;;11.05;4.40;;;;;;;10.44;100.00;102590.19;5057211;28;20151;-65
2021/03/29 08:09:17;;;;;;;13.20;4.50;;;;;;;10.64;100.00;102586.25;5051648;28;20049;-70
2021/03/29 08:11:54;;;;;;;15.85;5.35;;;;;;;10.63;100.00;102589.91;5054951;28;20037;-62
2021/03/29 08:14:41;;;;;;;12.52;4.68;;;;;;;10.81;100.00;102594.16;5054617;28;20052;-63
2021/03/29 08:17:42;;;;;;;13.50;4.68;;;;;;;10.80;100.00;102607.72;5055534;28;20715;-64
2021/03/29 08:20:10;;;;;;;13.80;4.53;;;;;;;10.96;100.00;102627.38;5056833;28;20564;-64
2021/03/29 08:22:37;;;;;;;10.93;4.20;;;;;;;10.93;100.00;102613.22;5057271;28;20094;-63
2021/03/29 08:25:04;;;;;;;15.90;4.88;;;;;;;11.07;100.00;102615.03;5055257;28;20056;-63
2021/03/29 08:27:31;;;;;;;11.30;4.38;;;;;;;11.07;100.00;102615.03;5058896;28;20048;-65
2021/03/29 08:30:10;;;;;;;14.10;4.45;;;;;;;11.29;100.00;102610.06;5061003;28;20091;-65
2021/03/29 08:32:37;;;;;;;14.77;4.30;;;;;;;11.33;100.00;102618.78;5061417;28;20036;-64
2021/03/29 08:35:05;;;;;;;9.35;4.20;;;;;;;11.08;100.00;102606.00;5058567;28;20070;-64
2021/03/29 08:37:34;;;;;;;13.23;4.80;;;;;;;11.17;100.00;102616.19;5060940;28;20044;-64
2021/03/29 08:40:08;;;;;;;8.80;3.92;;;;;;;11.14;100.00;102627.19;5059644;28;20576;-66
2021/03/29 08:42:34;;;;;;;13.23;4.65;;;;;;;11.16;100.00;102623.44;5059509;28;20109;-64
2021/03/29 08:45:03;;;;;;;10.10;4.55;;;;;;;11.29;100.00;102628.91;5060447;28;20060;-64
2021/03/29 08:47:29;;;;;;;11.82;4.25;;;;;;;11.59;100.00;102625.22;5059866;28;20556;-64
2021/03/29 08:49:57;;;;;;;13.15;4.20;;;;;;;11.66;100.00;102631.94;5060156;28;20091;-64
2021/03/29 08:52:24;;;;;;;13.63;4.35;;;;;;;11.68;100.00;102631.84;5059483;28;20049;-64
2021/03/29 08:54:53;;;;;;;11.98;4.43;;;;;;;11.91;100.00;102643.81;5059757;28;20048;-63
2021/03/29 08:57:24;;;;;;;9.02;4.10;;;;;;;11.86;100.00;102640.56;5071585;22;20056;-63
2021/03/29 08:59:54;;;;;;;14.70;4.20;;;;;;;12.00;100.00;102636.97;5058277;28;20095;-63
2021/03/29 09:02:21;;;;;;;16.50;4.10;;;;;;;12.13;100.00;102655.91;5061023;28;20040;-64
2021/03/29 09:04:55;;;;;;;13.82;4.55;;;;;;;11.98;100.00;102649.72;5060636;28;20098;-64
2021/03/29 09:07:27;;;;;;;12.73;3.95;;;;;;;12.07;100.00;102657.19;5060836;28;20403;-63
2021/03/29 09:09:54;;;;;;;11.50;4.22;;;;;;;12.18;100.00;102656.50;5061222;28;20053;-65
2021/03/29 09:12:29;;;;;;;14.20;3.92;;;;;;;12.19;100.00;102669.88;5059590;28;20202;-63
2021/03/29 09:14:56;;;;;;;14.82;4.60;;;;;;;12.15;100.00;102675.59;5057636;28;20049;-64
2021/03/29 09:17:31;;;;;;;15.85;4.60;;;;;;;12.24;100.00;102683.94;5061506;28;20466;-63
2021/03/29 09:19:58;;;;;;;14.10;4.32;;;;;;;12.47;100.00;102686.94;5061155;28;20131;-63
2021/03/29 09:22:34;;;;;;;11.20;4.82;;;;;;;12.47;100.00;102684.25;5059133;28;20053;-65
2021/03/29 09:25:01;;;;;;;14.00;4.60;;;;;;;12.30;100.00;102690.75;5061202;28;20758;-66
2021/03/29 09:27:32;;;;;;;10.93;3.80;;;;;;;12.67;100.00;102695.50;5059927;28;20049;-66
2021/03/29 09:30:00;;;;;;;14.57;4.10;;;;;;;12.65;100.00;102686.63;5058282;28;20059;-63
2021/03/29 09:32:27;;;;;;;12.27;4.38;;;;;;;12.44;100.00;102696.09;5060033;28;20056;-64
2021/03/29 09:34:54;;;;;;;10.82;4.65;;;;;;;12.56;100.00;102694.41;5058242;28;20048;-66
2021/03/29 09:37:22;;;;;;;13.73;4.45;;;;;;;12.62;100.00;102691.28;5059459;28;20056;-66
2021/03/29 09:39:55;;;;;;;16.05;4.63;;;;;;;12.66;100.00;102700.06;5056188;28;20064;-63
2021/03/29 09:42:36;;;;;;;10.60;4.53;;;;;;;12.60;100.00;102695.94;5057936;28;20110;-63
2021/03/29 09:45:02;;;;;;;14.65;4.57;;;;;;;12.70;100.00;102701.56;5062368;28;20049;-66
2021/03/29 09:47:30;;;;;;;10.40;4.35;;;;;;;12.86;100.00;102712.19;5059150;28;20048;-66
2021/03/29 09:49:56;;;;;;;12.25;4.68;;;;;;;12.87;100.00;102719.34;5061578;28;20056;-64
2021/03/29 09:52:33;;;;;;;11.27;4.00;;;;;;;12.88;100.00;102715.66;5060443;28;20060;-62
2021/03/29 09:54:59;;;;;;;7.63;4.63;;;;;;;12.95;100.00;102714.25;5059791;28;20057;-63
2021/03/29 09:57:27;;;;;;;10.82;4.70;;;;;;;13.29;100.00;102716.44;5060185;28;20071;-66
2021/03/29 09:59:55;;;;;;;11.27;4.35;;;;;;;13.48;100.00;102729.56;5039067;28;20406;-66
2021/03/29 10:02:24;;;;;;;6.95;3.78;;;;;;;13.31;100.00;102722.63;5037381;28;20057;-63
2021/03/29 10:05:00;;;;;;;13.82;4.75;;;;;;;13.16;100.00;102727.25;5038154;28;20052;-63
2021/03/29 10:07:26;;;;;;;16.20;5.70;;;;;;;13.01;100.00;102720.22;5038681;28;20491;-64
2021/03/29 10:09:58;;;;;;;12.57;5.03;;;;;;;13.17;100.00;102726.28;5038964;28;20045;-63
2021/03/29 10:12:25;;;;;;;10.32;4.80;;;;;;;13.58;100.00;102721.66;5038342;28;20049;-64
2021/03/29 10:15:06;;;;;;;14.25;5.30;;;;;;;13.63;100.00;102725.78;5039265;28;20042;-63
2021/03/29 10:17:32;;;;;;;12.77;4.78;;;;;;;13.62;100.00;102720.47;5039347;28;20124;-66
2021/03/29 10:20:05;;;;;;;19.55;5.43;;;;;;;13.47;100.00;102723.28;5039777;28;20053;-66
2021/03/29 10:22:32;;;;;;;12.07;4.80;;;;;;;13.60;100.00;102726.00;5037996;28;20364;-66
2021/03/29 10:25:01;;;;;;;12.32;5.05;;;;;;;13.40;100.00;102729.25;5038745;28;20108;-65
2021/03/29 10:27:41;;;;;;;14.52;5.38;;;;;;;13.65;100.00;102723.81;5035782;28;20055;-64
2021/03/29 10:30:10;;;;;;;14.70;5.30;;;;;;;13.84;100.00;102727.91;5035752;28;20056;-64
2021/03/29 10:32:36;;;;;;;10.77;4.90;;;;;;;14.21;100.00;102730.59;5036755;28;20045;-63
2021/03/29 10:35:03;;;;;;;11.45;4.60;;;;;;;13.86;100.00;102728.63;5037807;28;20057;-64
2021/03/29 10:37:30;;;;;;;10.23;4.90;;;;;;;13.85;100.00;102729.59;5039804;28;20048;-64
2021/03/29 10:39:59;;;;;;;12.65;4.40;;;;;;;14.06;100.00;102724.47;5039249;28;20060;-65
2021/03/29 10:42:28;;;;;;;10.27;5.07;;;;;;;14.15;100.00;102728.34;5039319;28;20102;-64
2021/03/29 10:44:55;;;;;;;11.68;5.22;;;;;;;14.10;100.00;102733.22;5039581;28;20287;-64
2021/03/29 10:47:23;;;;;;;11.68;4.97;;;;;;;14.05;100.00;102738.13;5039085;28;20053;-66
2021/03/29 10:49:49;;;;;;;12.65;4.88;;;;;;;14.24;100.00;102730.38;5039373;28;20548;-64
2021/03/29 10:52:16;;;;;;;9.98;4.93;;;;;;;14.20;100.00;102728.84;5038511;28;20048;-66
2021/03/29 10:54:42;;;;;;;14.70;5.30;;;;;;;14.36;100.00;102724.03;5039117;28;20053;-66
2021/03/29 10:57:08;;;;;;;9.95;4.63;;;;;;;14.71;100.00;102719.66;5038974;28;20053;-65
2021/03/29 10:59:34;;;;;;;12.68;4.68;;;;;;;14.62;100.00;102723.94;5039127;28;20044;-66
2021/03/29 11:02:01;;;;;;;14.23;4.97;;;;;;;14.47;100.00;102719.63;5041157;28;20053;-67
2021/03/29 11:04:28;;;;;;;10.07;4.68;;;;;;;14.87;100.00;102716.63;5040397;28;20047;-65
2021/03/29 11:06:54;;;;;;;13.77;5.55;;;;;;;14.76;99.59;102716.59;5040433;28;20051;-66
2021/03/29 11:09:20;;;;;;;13.60;5.00;;;;;;;14.91;97.72;102723.53;5038575;28;20656;-64
2021/03/29 11:11:46;;;;;;;12.55;4.53;;;;;;;14.87;99.29;102719.34;5040561;28;20128;-61
2021/03/29 11:14:12;;;;;;;9.93;4.45;;;;;;;14.92;96.62;102717.13;5040066;28;20079;-64
2021/03/29 11:16:38;;;;;;;12.80;4.47;;;;;;;14.92;95.70;102725.25;5039748;28;20124;-65
2021/03/29 11:19:04;;;;;;;14.15;5.05;;;;;;;14.78;95.90;102731.75;5040820;28;20122;-63
2021/03/29 11:21:33;;;;;;;13.25;5.15;;;;;;;14.93;96.00;102728.81;5039299;28;20099;-65
2021/03/29 11:23:59;;;;;;;12.45;4.85;;;;;;;15.09;93.97;102737.53;5038114;28;20049;-63
2021/03/29 11:26:25;;;;;;;11.25;5.43;;;;;;;15.27;94.49;102727.06;5040536;28;20045;-64
2021/03/29 11:28:51;;;;;;;12.90;4.70;;;;;;;15.50;91.91;102732.50;5039395;28;20055;-63
2021/03/29 11:31:20;;;;;;;17.23;5.03;;;;;;;15.24;91.65;102721.88;5040737;28;20045;-63
2021/03/29 11:33:45;;;;;;;13.90;5.13;;;;;;;15.24;92.89;102732.75;5040227;28;20095;-64
2021/03/29 11:36:11;;;;;;;11.30;4.72;;;;;;;15.37;92.54;102728.06;5039837;28;20052;-65